createdAt,value
2018-07-04T00:01:41.171Z,100491.86
2018-07-04T00:05:05.145Z,100493.00
2018-07-04T00:08:29.156Z,100495.59
2018-07-04T00:11:53.564Z,100500.17
2018-07-04T00:15:17.859Z,100506.45
2018-07-04T00:18:41.669Z,100497.70
2018-07-04T00:22:06.049Z,100500.85
2018-07-04T00:25:30.534Z,100495.78
2018-07-04T00:28:54.652Z,100494.34
2018-07-04T00:32:19.015Z,100485.84
2018-07-04T00:35:43.110Z,100486.58
2018-07-04T00:39:07.370Z,100491.33
2018-07-04T00:42:33.818Z,100485.45
2018-07-04T00:45:58.171Z,100475.95
2018-07-04T00:49:23.106Z,100480.96
2018-07-04T00:52:47.322Z,100483.97
2018-07-04T00:56:11.936Z,100482.39
2018-07-04T00:59:36.019Z,100484.31
2018-07-04T01:03:00.378Z,100480.12
2018-07-04T01:06:24.553Z,100481.34
2018-07-04T01:09:48.873Z,100483.02
2018-07-04T01:13:12.980Z,100487.70
2018-07-04T01:16:37.161Z,100497.36
2018-07-04T01:20:01.448Z,100487.85
2018-07-04T01:23:26.118Z,100495.61
2018-07-04T01:26:51.033Z,100501.91
2018-07-04T01:30:14.665Z,100501.39
2018-07-04T01:33:38.564Z,100498.88
2018-07-04T01:37:02.939Z,100495.70
2018-07-04T01:40:27.139Z,100498.59
2018-07-04T01:43:51.152Z,100500.04
2018-07-04T01:47:15.330Z,100504.73
2018-07-04T01:50:39.486Z,100503.27
2018-07-04T01:54:04.298Z,100501.98
2018-07-04T01:57:28.817Z,100501.59
2018-07-04T02:00:53.085Z,100498.99
2018-07-04T02:04:17.348Z,100498.77
2018-07-04T02:07:41.616Z,100503.48
2018-07-04T02:11:06.555Z,100506.27
2018-07-04T02:14:30.792Z,100511.97
2018-07-04T02:17:54.863Z,100504.61
2018-07-04T02:21:21.561Z,100504.68
2018-07-04T02:24:46.761Z,100504.84
2018-07-04T02:28:11.291Z,100505.91
2018-07-04T02:31:37.765Z,100508.67
2018-07-04T02:35:01.953Z,100511.17
2018-07-04T02:38:26.680Z,100512.00
2018-07-04T02:41:50.994Z,100497.64
2018-07-04T02:45:15.606Z,100504.89
2018-07-04T02:48:42.427Z,100504.59
2018-07-04T02:52:07.024Z,100504.44
2018-07-04T02:55:31.770Z,100496.33
2018-07-04T02:58:56.091Z,100502.98
2018-07-04T03:02:20.291Z,100495.99
2018-07-04T03:05:44.434Z,100498.67
2018-07-04T03:09:12.851Z,100497.13
2018-07-04T03:12:36.862Z,100502.73
2018-07-04T03:16:01.968Z,100504.17
2018-07-04T03:19:26.363Z,100501.92
2018-07-04T03:22:50.764Z,100493.45
2018-07-04T03:26:14.985Z,100490.71
2018-07-04T03:29:40.105Z,100488.23
2018-07-04T03:33:04.539Z,100490.23
2018-07-04T03:36:28.931Z,100491.48
2018-07-04T03:39:53.565Z,100499.69
2018-07-04T03:43:21.157Z,100499.27
2018-07-04T03:46:47.169Z,100498.14
2018-07-04T03:50:12.660Z,100495.00
2018-07-04T03:53:41.521Z,100492.77
2018-07-04T03:57:07.308Z,100500.75
2018-07-04T04:00:34.545Z,100502.38
2018-07-04T04:03:58.892Z,100487.89
2018-07-04T04:07:23.087Z,100491.77
2018-07-04T04:10:47.966Z,100499.39
2018-07-04T04:14:13.324Z,100498.96
2018-07-04T04:17:38.439Z,100502.84
2018-07-04T04:21:02.662Z,100497.91
2018-07-04T04:24:27.249Z,100503.94
2018-07-04T04:27:51.667Z,100498.47
2018-07-04T04:31:17.134Z,100508.01
2018-07-04T04:34:41.375Z,100506.47
2018-07-04T04:38:10.229Z,100498.84
2018-07-04T04:41:34.894Z,100504.03
2018-07-04T04:45:00.190Z,100497.97
2018-07-04T04:48:25.797Z,100501.64
2018-07-04T04:51:50.503Z,100500.53
2018-07-04T04:55:15.041Z,100498.13
2018-07-04T04:58:39.584Z,100496.23
2018-07-04T05:02:04.446Z,100498.11
2018-07-04T05:05:28.845Z,100486.88
2018-07-04T05:08:53.588Z,100490.73
2018-07-04T05:12:17.950Z,100498.29
2018-07-04T05:15:42.524Z,100498.26
2018-07-04T05:19:06.352Z,100495.83
2018-07-04T05:22:30.327Z,100506.36
2018-07-04T05:25:54.478Z,100497.44
2018-07-04T05:29:18.700Z,100493.70
2018-07-04T05:32:43.279Z,100495.18
2018-07-04T05:36:07.705Z,100497.41
2018-07-04T05:39:31.570Z,100499.98
2018-07-04T05:42:56.476Z,100495.59
2018-07-04T05:46:21.186Z,100497.91
2018-07-04T05:49:45.326Z,100492.91
2018-07-04T05:53:09.397Z,100495.45
2018-07-04T05:56:33.841Z,100490.17
2018-07-04T05:59:57.712Z,100491.70
2018-07-04T06:03:21.777Z,100494.16
2018-07-04T06:06:45.735Z,100489.26
2018-07-04T06:10:09.474Z,100495.53
2018-07-04T06:13:33.568Z,100495.61
2018-07-04T06:16:58.406Z,100487.75
2018-07-04T06:20:22.663Z,100495.50
2018-07-04T06:23:46.654Z,100493.23
2018-07-04T06:27:11.023Z,100490.30
2018-07-04T06:30:35.155Z,100491.94
2018-07-04T06:33:59.251Z,100487.92
2018-07-04T06:37:23.536Z,100489.72
2018-07-04T06:40:00.724Z,100485.42
2018-07-04T06:42:28.670Z,100492.58
2018-07-04T06:44:56.494Z,100492.50
2018-07-04T06:47:24.365Z,100491.61
2018-07-04T06:49:52.307Z,100494.29
2018-07-04T06:52:20.131Z,100495.23
2018-07-04T06:54:48.099Z,100502.05
2018-07-04T06:57:15.947Z,100492.70
2018-07-04T06:59:43.842Z,100485.14
2018-07-04T07:02:11.717Z,100483.89
2018-07-04T07:05:17.778Z,100485.23
2018-07-04T07:08:42.818Z,100491.34
2018-07-04T07:12:06.832Z,100490.39
2018-07-04T07:15:30.958Z,100484.37
2018-07-04T07:18:55.215Z,100482.55
2018-07-04T07:22:19.567Z,100472.78
2018-07-04T07:25:43.577Z,100469.95
2018-07-04T07:29:07.398Z,100473.31
2018-07-04T07:32:31.522Z,100471.91
2018-07-04T07:35:55.874Z,100469.95
2018-07-04T07:39:20.294Z,100467.13
2018-07-04T07:42:44.125Z,100463.67
2018-07-04T07:46:07.956Z,100461.68
2018-07-04T07:49:31.780Z,100462.70
2018-07-04T07:52:55.662Z,100470.85
2018-07-04T07:56:20.362Z,100464.53
2018-07-04T07:59:44.295Z,100462.29
2018-07-04T08:03:08.463Z,100457.52
2018-07-04T08:06:32.520Z,100455.05
2018-07-04T08:09:56.380Z,100449.89
2018-07-04T08:13:20.437Z,100444.67
2018-07-04T08:16:44.752Z,100449.33
2018-07-04T08:20:08.868Z,100447.02
2018-07-04T08:23:33.686Z,100449.84
2018-07-04T08:26:58.049Z,100439.99
2018-07-04T08:30:22.379Z,100440.44
2018-07-04T08:33:46.966Z,100434.93
2018-07-04T08:37:11.115Z,100436.41
2018-07-04T08:40:35.513Z,100427.73
2018-07-04T08:43:59.557Z,100427.06
2018-07-04T08:47:24.933Z,100424.86
2018-07-04T08:50:50.148Z,100417.80
2018-07-04T08:54:14.367Z,100420.08
2018-07-04T08:57:38.905Z,100418.60
2018-07-04T09:01:02.884Z,100417.59
2018-07-04T09:04:26.838Z,100417.91
2018-07-04T09:07:56.712Z,100422.73
2018-07-04T09:11:22.384Z,100419.31
2018-07-04T09:14:47.399Z,100417.92
2018-07-04T09:18:11.800Z,100407.43
2018-07-04T09:21:37.629Z,100415.55
2018-07-04T09:25:02.810Z,100411.84
2018-07-04T09:28:45.933Z,100408.27
2018-07-04T09:32:11.200Z,100406.24
2018-07-04T09:35:41.091Z,100407.02
2018-07-04T09:39:05.883Z,100405.44
2018-07-04T09:42:33.140Z,100404.08
2018-07-04T09:45:57.879Z,100404.56
2018-07-04T09:49:24.289Z,100403.94
2018-07-04T09:52:50.150Z,100395.94
2018-07-04T09:56:16.103Z,100398.47
2018-07-04T09:59:43.901Z,100394.61
2018-07-04T10:03:08.971Z,100393.03
2018-07-04T10:06:33.600Z,100388.44
2018-07-04T10:09:58.634Z,100386.30
2018-07-04T10:13:22.984Z,100381.80
2018-07-04T10:16:47.230Z,100375.92
2018-07-04T10:20:11.183Z,100369.16
2018-07-04T10:23:35.207Z,100371.79
2018-07-04T10:26:59.953Z,100369.29
2018-07-04T10:30:24.668Z,100370.05
2018-07-04T10:33:48.999Z,100365.08
2018-07-04T10:37:13.246Z,100366.73
2018-07-04T10:40:37.173Z,100358.06
2018-07-04T10:44:01.175Z,100362.70
2018-07-04T10:47:25.212Z,100365.02
2018-07-04T10:50:50.410Z,100365.81
2018-07-04T10:54:15.133Z,100359.02
2018-07-04T10:57:39.201Z,100352.16
2018-07-04T11:01:05.367Z,100361.91
2018-07-04T11:04:29.440Z,100353.52
2018-07-04T11:07:53.627Z,100352.76
2018-07-04T11:11:23.559Z,100348.28
2018-07-04T11:14:54.786Z,100355.13
2018-07-04T11:18:20.931Z,100349.73
2018-07-04T11:21:57.064Z,100353.83
2018-07-04T11:25:32.040Z,100343.94
2018-07-04T11:32:47.778Z,100341.45
2018-07-04T11:36:12.891Z,100337.95
2018-07-04T11:39:39.011Z,100342.84
2018-07-04T11:43:05.070Z,100328.19
2018-07-04T11:46:09.653Z,100323.75
2018-07-04T11:51:39.092Z,100322.61
2018-07-04T11:54:08.155Z,100323.08
2018-07-04T11:56:38.976Z,100317.12
2018-07-04T11:59:07.884Z,100313.20
2018-07-04T12:01:40.561Z,100312.89
2018-07-04T12:04:48.198Z,100311.35
2018-07-04T12:07:34.578Z,100308.83
2018-07-04T12:10:05.569Z,100309.52
2018-07-04T12:12:34.279Z,100301.04
2018-07-04T12:15:02.217Z,100305.63
2018-07-04T12:17:30.088Z,100293.41
2018-07-04T12:19:59.060Z,100293.62
2018-07-04T12:22:26.936Z,100291.47
2018-07-04T12:24:58.262Z,100279.98
2018-07-04T12:27:26.145Z,100282.93
2018-07-04T12:29:57.084Z,100288.30
2018-07-04T12:32:32.430Z,100276.06
2018-07-04T12:35:01.005Z,100283.84
2018-07-04T12:37:28.991Z,100276.30
2018-07-04T12:39:56.934Z,100283.06
2018-07-04T12:42:25.166Z,100269.80
2018-07-04T12:44:53.202Z,100262.84
2018-07-04T12:47:21.601Z,100259.28
2018-07-04T12:49:49.451Z,100252.62
2018-07-04T12:52:17.537Z,100256.50
2018-07-04T12:54:48.786Z,100254.39
2018-07-04T12:58:13.885Z,100255.55
2018-07-04T13:01:39.463Z,100251.47
2018-07-04T13:05:03.471Z,100247.51
2018-07-04T13:08:27.989Z,100244.62
2018-07-04T13:11:52.839Z,100231.20
2018-07-04T13:15:17.210Z,100234.50
2018-07-04T13:18:43.290Z,100231.64
2018-07-04T13:22:23.533Z,100230.36
2018-07-04T13:25:48.027Z,100225.93
2018-07-04T13:29:13.057Z,100225.15
2018-07-04T13:32:41.253Z,100217.23
2018-07-04T13:36:04.570Z,100216.44
2018-07-04T13:39:28.444Z,100208.33
2018-07-04T13:42:54.263Z,100207.63
2018-07-04T13:46:18.658Z,100197.24
2018-07-04T13:49:42.834Z,100191.16
2018-07-04T13:53:07.872Z,100193.37
2018-07-04T13:56:32.467Z,100189.91
2018-07-04T13:59:57.180Z,100187.56
2018-07-04T14:03:21.055Z,100183.20
2018-07-04T14:06:45.039Z,100175.25
2018-07-04T14:10:09.159Z,100154.83
2018-07-04T14:17:32.709Z,100166.79
2018-07-04T14:20:57.748Z,100170.17
2018-07-04T14:24:27.210Z,100163.08
2018-07-04T14:27:50.875Z,100155.71
2018-07-04T14:31:14.883Z,100164.56
2018-07-04T14:34:39.291Z,100170.77
2018-07-04T14:38:03.338Z,100161.08
2018-07-04T14:41:27.444Z,100154.95
2018-07-04T14:44:54.149Z,100155.72
2018-07-04T14:48:18.385Z,100149.05
2018-07-04T14:51:42.554Z,100147.69
2018-07-04T14:55:06.951Z,100147.58
2018-07-04T14:58:38.059Z,100145.11
2018-07-04T15:02:02.155Z,100141.61
2018-07-04T15:05:26.991Z,100146.55
2018-07-04T15:08:53.303Z,100134.98
2018-07-04T15:12:18.095Z,100129.55
2018-07-04T15:15:46.432Z,100128.51
2018-07-04T15:19:11.666Z,100128.83
2018-07-04T15:22:38.394Z,100136.55
2018-07-04T15:26:04.463Z,100130.86
2018-07-04T15:29:29.241Z,100124.91
2018-07-04T15:32:54.259Z,100128.97
2018-07-04T15:36:18.793Z,100130.27
2018-07-04T15:39:44.098Z,100127.75
2018-07-04T15:43:08.563Z,100122.03
2018-07-04T15:46:32.699Z,100121.64
2018-07-04T15:53:42.417Z,100118.17
2018-07-04T15:57:07.054Z,100122.00
2018-07-04T16:00:32.078Z,100113.91
2018-07-04T16:03:59.002Z,100111.61
2018-07-04T16:07:27.943Z,100112.02
2018-07-04T16:10:53.732Z,100108.59
2018-07-04T16:18:03.944Z,100110.59
2018-07-04T16:21:28.916Z,100113.84
2018-07-04T16:24:55.496Z,100117.75
2018-07-04T16:28:21.499Z,100116.08
2018-07-04T16:31:44.800Z,100114.53
2018-07-04T16:35:08.518Z,100108.52
2018-07-04T16:38:41.022Z,100108.58
2018-07-04T16:42:05.791Z,100117.77
2018-07-04T16:45:30.483Z,100117.76
2018-07-04T16:48:55.452Z,100116.61
2018-07-04T16:52:20.510Z,100109.67
2018-07-04T16:55:47.029Z,100118.07
2018-07-04T16:59:17.734Z,100121.09
2018-07-04T17:02:44.327Z,100122.59
2018-07-04T17:06:26.587Z,100120.27
2018-07-04T17:09:51.467Z,100117.47
2018-07-04T17:13:16.517Z,100126.77
2018-07-04T17:16:40.667Z,100128.21
2018-07-04T17:20:05.106Z,100129.58
2018-07-04T17:23:29.222Z,100134.55
2018-07-04T17:26:57.059Z,100130.55
2018-07-04T17:30:30.162Z,100130.08
2018-07-04T17:34:03.215Z,100126.50
2018-07-04T17:37:28.595Z,100129.92
2018-07-04T17:40:56.317Z,100130.57
2018-07-04T17:44:20.389Z,100122.42
2018-07-04T17:47:46.231Z,100123.13
2018-07-04T17:51:10.272Z,100125.12
2018-07-04T17:54:34.675Z,100118.95
2018-07-04T17:57:58.830Z,100117.70
2018-07-04T18:01:23.713Z,100119.14
2018-07-04T18:04:50.073Z,100112.97
2018-07-04T18:08:14.491Z,100117.27
2018-07-04T18:11:38.729Z,100120.30
2018-07-04T18:15:03.137Z,100121.66
2018-07-04T18:18:28.036Z,100118.37
2018-07-04T18:21:52.443Z,100117.14
2018-07-04T18:25:18.505Z,100113.80
2018-07-04T18:28:44.379Z,100117.91
2018-07-04T18:32:24.805Z,100119.51
2018-07-04T18:35:57.383Z,100116.00
2018-07-04T18:39:29.170Z,100120.02
2018-07-04T18:42:59.765Z,100127.25
2018-07-04T18:46:42.705Z,100124.19
2018-07-04T18:50:07.634Z,100136.71
2018-07-04T18:53:32.225Z,100135.17
2018-07-04T18:56:56.735Z,100133.00
2018-07-04T19:00:33.315Z,100131.21
2018-07-04T19:03:59.892Z,100136.45
2018-07-04T19:07:24.829Z,100133.16
2018-07-04T19:11:04.517Z,100142.23
2018-07-04T19:18:13.420Z,100144.05
2018-07-04T19:21:43.981Z,100140.72
2018-07-04T19:25:12.529Z,100141.09
2018-07-04T19:28:42.470Z,100147.19
2018-07-04T19:32:19.064Z,100144.94
2018-07-04T19:35:53.681Z,100153.40
2018-07-04T19:39:33.284Z,100152.02
2018-07-04T19:43:01.744Z,100152.14
2018-07-04T19:46:30.092Z,100154.08
2018-07-04T19:50:08.233Z,100160.61
2018-07-04T19:53:42.323Z,100159.53
2018-07-04T19:57:18.832Z,100160.28
2018-07-04T20:00:43.725Z,100165.45
2018-07-04T20:04:11.943Z,100159.47
2018-07-04T20:07:38.371Z,100164.85
2018-07-04T20:11:03.026Z,100170.25
2018-07-04T20:14:40.293Z,100170.04
2018-07-04T20:18:07.340Z,100172.77
2018-07-04T20:21:32.774Z,100169.20
2018-07-04T20:24:57.044Z,100172.17
2018-07-04T20:28:21.501Z,100165.55
2018-07-04T20:31:45.536Z,100166.66
2018-07-04T20:35:11.121Z,100162.02
2018-07-04T20:38:36.110Z,100161.70
2018-07-04T20:42:00.869Z,100160.38
2018-07-04T20:45:25.402Z,100158.87
2018-07-04T20:48:49.777Z,100157.80
2018-07-04T20:52:14.347Z,100160.69
2018-07-04T20:55:39.734Z,100157.48
2018-07-04T20:59:03.805Z,100153.47
2018-07-04T21:02:28.071Z,100160.91
2018-07-04T21:05:52.454Z,100150.60
2018-07-04T21:09:26.198Z,100149.88
2018-07-04T21:16:38.492Z,100144.17
2018-07-04T21:20:07.668Z,100146.92
2018-07-04T21:23:32.577Z,100155.22
2018-07-04T21:27:14.514Z,100157.12
2018-07-04T21:30:39.298Z,100154.02
2018-07-04T21:34:03.859Z,100150.42
2018-07-04T21:37:28.768Z,100147.94
2018-07-04T21:40:53.359Z,100148.79
2018-07-04T21:44:22.094Z,100138.52
2018-07-04T21:47:50.808Z,100138.60
2018-07-04T21:51:17.134Z,100145.89
2018-07-04T21:54:50.356Z,100152.83
2018-07-04T21:58:15.208Z,100150.97
2018-07-04T22:01:39.497Z,100149.69
2018-07-04T22:05:06.131Z,100154.98
2018-07-04T22:08:30.977Z,100153.02
2018-07-04T22:12:00.257Z,100145.55
2018-07-04T22:15:25.130Z,100146.17
2018-07-04T22:18:49.457Z,100149.93
2018-07-04T22:22:14.422Z,100149.03
2018-07-04T22:25:39.840Z,100156.86
2018-07-04T22:29:06.070Z,100152.06
2018-07-04T22:32:32.824Z,100153.72
2018-07-04T22:35:57.379Z,100156.03
2018-07-04T22:39:22.388Z,100154.52
2018-07-04T22:42:48.426Z,100142.52
2018-07-04T22:46:13.345Z,100140.61
2018-07-04T22:49:38.524Z,100142.00
2018-07-04T22:53:03.216Z,100146.34
2018-07-04T22:56:32.812Z,100141.58
2018-07-04T23:03:41.723Z,100141.85
2018-07-04T23:07:06.383Z,100140.95
2018-07-04T23:10:32.820Z,100138.55
2018-07-04T23:13:57.787Z,100145.83
2018-07-04T23:17:22.700Z,100137.27
2018-07-04T23:20:46.685Z,100145.23
2018-07-04T23:24:11.247Z,100136.59
2018-07-04T23:27:35.995Z,100138.71
2018-07-04T23:31:00.187Z,100139.96
2018-07-04T23:34:25.163Z,100135.72
2018-07-04T23:37:49.537Z,100138.66
2018-07-04T23:41:13.471Z,100135.86
2018-07-04T23:44:37.374Z,100141.19
2018-07-04T23:48:01.383Z,100142.06
2018-07-04T23:51:25.346Z,100141.22
2018-07-04T23:54:51.967Z,100141.39
2018-07-04T23:58:16.322Z,100141.06
